Troy, NY (12181)

7:53 AM EDT on July 29, 2016 (GMT -0400)
South Troy | | Change Station

Elev 102 ft 42.72 °N, 73.69 °W | Updated 26 seconds ago

Overcast
Overcast
70.5 °F
Feels Like 70.5 °F
N
0.0
Wind Variable Wind from North
Gusts 1.6 mph

Today
High -- | Low -- °F
--% Chance of Precip.
Yesterday
High -- | Low -- °F
Precip. -- in
Pressure 29.89 in
Visibility 8.0 miles
Clouds Few 1500 ft
Mostly Cloudy 5000 ft
Mostly Cloudy 15000 ft
Overcast 18000 ft
Dew Point 70 °F
Humidity 99%
Rainfall 0.46 in
Snow Depth Not available.
5:43 AM 8:18 PM
Waning Crescent, 22% visible
METAR KALB 291151Z 34004KT 8SM VCFG FEW015 BKN050 BKN150 OVC180 21/19 A2989 RMK AO2 SLP121 OCNL BINOVC VCFG E-SE 60062 70062 T02110194 10222 20206 53009
Pressure 29.89 in
Visibility 8.0 miles
Clouds Few 1500 ft
Mostly Cloudy 5000 ft
Mostly Cloudy 15000 ft
Overcast 18000 ft
Dew Point 70 °F
Humidity 99%
Rainfall 0.46 in
Snow Depth Not available.
5:43 AM 8:18 PM
Waning Crescent, 22% visible
METAR KALB 291151Z 34004KT 8SM VCFG FEW015 BKN050 BKN150 OVC180 21/19 A2989 RMK AO2 SLP121 OCNL BINOVC VCFG E-SE 60062 70062 T02110194 10222 20206 53009

10-Day Weather Forecast

Almanac

Astronomy

Jul. 29, 2016 Rise Set
Actual Time
Civil Twilight
Nautical Twilight
Astronomical Twilight
Moon
Length of Visible Light
Length of Day
Tomorrow will be .
, % of the Moon is Illuminated

Today's Extremes

State Highs State Lows

Community

WunderPhotos

Upload Photos

1,928,325 photos uploaded!

WunderBlog® & News

Nearby

Air Quality

  Air Quality AQ Index Pollutant
Not available.

Snow Depth

Station Depth Elevation

Earthquake Activity

City Distance Mag. Time & Date
Minimum magnitude displayed is 2.5.

Coastal Water Temperatures

Place Temperature

Stations

Nearby Weather Stations

Station Location Temp. Windchill Dew Point Humidity Wind Precip. Elev Updated Type
                   

Watches & Warnings

There are currently no watches in effect.